Sunnyhill, Louisiana
Current Conditions -  °F | °C
As of 8:53 PM on Friday 19 Dec 2014 (Local Time) from KMCB Reporting Station
Light Rain Light Rain  
Wind Chill: 42°   Ceiling: 600
Heat Index: 46°   Visibility: 5mi
Dew Point: 44°   Wind: 8mph
Humidity: 93%   Direction: 80°E
Pressure: 30.11"   Gusts: NA
Location:  30.881°N, 90.466°W
Report Text: KMCB 200253Z AUTO 08007KT 5SM -RA BR OVC006 08/07 A3011 RMK AO2 SLP194 P0004 60020 T00780067 58001
Loading
Personal Weather Stations






























Interactive Weather Map New forecast layout! Learn more

10-Day Weather Forecast

Advertisements
Track Severe Weather on mobile